Logo

Informe meteorológico de la semana en curso

  • Compartir en Google Plus
  • Compartir en Twitter
  • Compartir en Facebook
Nº de accesos al conjunto de datos: 130

Previsualización

API de datos Código HTML

_id codest paraje municipio periodo NDias tmin tmax tmed hrmin hrmax hrmed prec radmax radmed vvmed vvmax eto_pm_fao
1 AL31 Lebor Totana 08/07/2019 - 14/07/2019 7 17.3 36.5 26.3 19.6 89.7 48.5 0.2 1225 312.8 1.5 7.0 43.3
2 AL41 La Calavera Alhama 08/07/2019 - 14/07/2019 7 15.2 37.9 26.4 14.1 85.7 43.7 0.1 1214 315.9 2.2 10.7 50.1
3 AL52 Los Palomos Librilla 08/07/2019 - 14/07/2019 7 16.9 38.2 27.1 18.6 86.8 47.4 0.0 1192 286.5 1.5 8.3 42.7
4 AL62 Cañada Gallego Mazarrón 08/07/2019 - 14/07/2019 7 18.5 33.1 25.5 25.4 84.9 55.9 0.0 1219 318.8 1.2 7.7 39.9
5 AL91 Leiva Mazarrón 08/07/2019 - 14/07/2019 7 17.0 35.3 25.7 23.5 99.9 64.5 0.3 1223 312.2 1.4 8.1 40.8
6 CA12 La Palma Cartagena 08/07/2019 - 14/07/2019 7 17.7 34.0 26.1 22.3 81.5 56.5 0.2 1176 314.6 1.5 9.6 42.2
7 CA21 Corvera Murcia 08/07/2019 - 14/07/2019 7 19.8 35.4 26.7 23.1 84.5 47.1 0.0 1281 311.2 2.1 8.4 47.0
8 CA42 Balsapintada Fuente Alamo 08/07/2019 - 14/07/2019 7 17.6 35.8 26.4 23.7 96.8 57.4 0.0 1309 315.9 1.1 6.0 40.9
9 CA52 La Aljorra Cartagena 08/07/2019 - 14/07/2019 7 18.3 34.4 26.3 25.0 85.0 54.1 0.0 1272 317.7 1.9 8.8 45.0
10 CA73 Los Belones Cartagena 08/07/2019 - 14/07/2019 7 19.2 31.3 25.5 34.4 88.3 66.6 0.2 1096 286.5 1.4 9.8 36.9
11 CA91 Campillo Abajo Fuente Alamo 08/07/2019 - 14/07/2019 7 17.5 36.4 26.5 17.2 82.6 46.1 0.0 1190 315.3 0.9 9.1 40.1
12 CI22 Estación de Blanca Blanca 08/07/2019 - 14/07/2019 7 17.9 37.2 27.0 15.4 84.8 42.9 0.3 1186 321.6 1.1 7.4 43.1
13 CI32 Estación Ulea Ulea 08/07/2019 - 14/07/2019 7 17.5 37.2 26.8 19.3 93.3 50.2 0.4 1146 304.9 2.2 9.0 48.7
14 CI42 La Carrichosa Cieza 08/07/2019 - 14/07/2019 7 15.5 38.6 27.0 18.8 95.7 51.1 0.4 1198 312.1 1.3 8.8 43.5
15 CI52 Rotas Calasparra 08/07/2019 - 14/07/2019 7 15.5 38.7 27.2 14.0 81.1 40.9 0.2 1185 323.5 1.3 11.1 45.1
16 CI71 Llano de las olivericas Calasparra 08/07/2019 - 14/07/2019 7 16.8 38.3 26.9 19.1 99.9 48.8 1.4 1221 305.0 1.1 7.4 41.5
17 CR12 Barranda Caravaca 08/07/2019 - 14/07/2019 7 12.7 34.9 24.1 11.5 81.2 39.0 0.0 1228 307.4 1.2 12.5 40.6
18 CR32 El Chaparral Cehegin 08/07/2019 - 14/07/2019 7 11.7 37.1 25.6 14.7 87.6 44.2 1.2 1139 311.1 1.3 9.0 42.7
19 CR42 Venta Ulea Moratalla 08/07/2019 - 14/07/2019 7 15.9 37.9 26.6 17.1 85.4 42.1 0.2 1237 317.1 2.3 11.3 51.6
20 CR52 La Torrecica Cehegin 08/07/2019 - 14/07/2019 7 15.1 36.8 26.1 15.2 85.9 43.0 1.3 1182 319.4 1.0 8.3 41.3
21 JU12 Cª del Judio Jumilla 08/07/2019 - 14/07/2019 7 16.2 37.9 26.6 12.7 87.7 41.5 1.0 1152 303.1 1.5 9.1 44.9
22 JU42 Las Moratillas Yecla 08/07/2019 - 14/07/2019 7 13.7 37.6 25.2 18.1 86.9 46.8 1.0 1199 320.0 1.0 6.0 40.7
23 JU52 Pinillos Yecla 08/07/2019 - 14/07/2019 7 12.8 38.2 25.2 13.0 90.4 46.6 1.1 1170 298.2 0.7 7.4 37.0
24 JU71 Las Encebras Jumilla 08/07/2019 - 14/07/2019 7 16.0 37.6 26.4 13.6 83.9 43.4 1.2 1286 319.3 1.7 10.0 46.2
25 JU81 Roman Jumilla 08/07/2019 - 14/07/2019 7 16.3 38.5 26.8 13.1 83.9 40.9 0.5 1219 317.8 1.4 9.0 45.0
26 LO11 Purias Lorca 08/07/2019 - 14/07/2019 7 18.0 38.1 27.2 15.3 86.0 42.7 0.0 1206 316.4 1.8 8.1 48.1
27 LO21 Pozohiguera Lorca 08/07/2019 - 14/07/2019 7 17.3 33.7 25.5 23.5 87.6 49.2 0.0 1197 311.6 2.2 9.4 45.1
28 LO31 La Pilica Aguilas 08/07/2019 - 14/07/2019 7 20.3 32.5 26.1 26.4 85.5 59.4 0.2 1164 304.6 1.3 6.9 39.3
29 LO41 La Paca Lorca 08/07/2019 - 14/07/2019 7 14.5 36.3 25.2 14.8 82.7 40.6 0.2 1263 328.4 1.8 8.6 47.5
30 LO51 Tebar Aguilas 08/07/2019 - 14/07/2019 7 20.8 33.6 26.5 22.1 89.9 45.1 0.1 1184 314.4 2.0 10.1 45.9
31 LO61 El Esparragal Puerto Lumbreras 08/07/2019 - 14/07/2019 7 16.8 36.9 26.7 12.5 85.2 38.8 0.1 1210 318.7 1.7 9.5 47.1
32 ML21 Mula Mula 08/07/2019 - 14/07/2019 7 17.0 37.5 26.8 15.4 83.2 41.8 0.2 1293 325.0 1.8 9.3 48.9
33 MO12 Pilica Torres de Cotillas 08/07/2019 - 14/07/2019 7 19.2 38.1 27.5 21.0 90.0 49.1 0.4 1172 317.3 1.8 8.1 47.5
34 MO22 Campotejar Molina Segura 08/07/2019 - 14/07/2019 7 17.2 37.3 26.8 14.8 84.6 46.8 0.6 1199 311.1 1.6 9.5 45.6
35 MO31 El Llano Molina Segura 08/07/2019 - 14/07/2019 7 17.2 38.2 27.4 16.5 99.9 51.9 0.2 1131 295.2 0.7 8.1 37.9
36 MO41 La Jaira Abanilla 08/07/2019 - 14/07/2019 7 18.2 36.5 26.4 13.8 88.1 47.9 0.2 1144 296.7 1.3 9.5 42.0
37 MO51 Charco Taray Fortuna 08/07/2019 - 14/07/2019 7 19.1 37.1 27.0 17.8 93.7 51.3 0.6 1218 310.6 1.2 6.5 42.6
38 MO62 Loma del Aire Ojós 08/07/2019 - 14/07/2019 7 19.6 38.0 28.0 19.0 88.6 46.8 0.4 1194 272.5 0.9 8.0 37.4
39 MU21 Los Alamos Beniel 08/07/2019 - 14/07/2019 7 17.6 37.8 27.0 18.3 91.8 56.0 0.2 1226 306.8 1.7 7.7 44.9
40 MU31 La Vereda Murcia 08/07/2019 - 14/07/2019 7 19.1 38.3 27.9 19.3 90.4 45.9 0.4 1161 295.1 1.5 8.6 44.2
41 MU52 Cabezo Plata Murcia 08/07/2019 - 14/07/2019 7 19.6 37.7 27.7 17.5 89.8 50.1 0.0 1167 308.8 1.8 11.1 46.9
42 MU62 La Alberca Murcia 08/07/2019 - 14/07/2019 7 19.4 38.9 28.5 14.9 78.3 39.4 0.1 1240 308.9 1.0 10.6 42.5
43 TP22 Santiago de la Ribera San Javier 08/07/2019 - 14/07/2019 7 18.6 36.2 26.0 17.4 85.6 59.1 0.8 1171 307.9 1.2 8.3 40.1
44 TP42 Torre Blanca Torre Pacheco 08/07/2019 - 14/07/2019 7 17.0 36.1 26.4 24.0 88.9 58.7 0.2 1142 299.7 2.0 11.3 44.1
45 TP52 El Mirador San Javier 08/07/2019 - 14/07/2019 7 19.1 35.8 26.1 18.0 88.2 52.9 0.3 1259 322.7 1.5 10.0 43.7
46 TP73 Los Infiernos Torre Pacheco 08/07/2019 - 14/07/2019 7 18.5 34.7 26.0 18.9 80.5 51.0 0.0 1150 309.9 2.3 10.1 47.4
47 TP91 Torre Pacheco Torre Pacheco 08/07/2019 - 14/07/2019 7 17.8 34.5 26.4 24.1 89.2 55.8 0.0 1069 299.5 1.3 8.7 40.2

Propiedades del conjunto de datos

Título
Informe meteorológico de la semana en curso
Descripción

Información sobre los datos meteorológicos medios de la semana en curso. Se incluye la información por cada una de las estaciones meteorológicas de la red SIAM gestionada por el Instituto Murciano de Investigación y Desarrollo Agrario y Alimentario (IMIDA). Los datos recogidos por las estaciones son validados al día siguiente de la toma de datos.

Categoría
Palabra clave / etiqueta
Publicador
Cobertura geográfica
Región de Murcia
Idioma
Español
Fecha de primera publicación
15/05/2018
Fecha de última modificación
15/07/2019
Licencia
Frecuencia de actualización
Diaria (cada día)
Diccionario de datos
La información se estructura en las siguientes columnas: Código de estación meteorológica, Nombre del paraje donde está ubicada la estación, Municipio donde está ubicada la estación, Fechas de toma de datos, número de días del ejercicio, Temperatura mínima (ºC), Temperatura máxima (ºC), Temperatura media (ºC), Humedad Relativa mínima (%), Humedad Relativa máxima (%),Humedad Relativa media (%),Precipitación (mm), radiación máxima (w/m2), radiación media (w/m2), Velocidad del Viento media (m/seg), Velocidad del Viento máxima (m/seg), Evapotranspiración máxima de un día (mm).

Metadatos

Recursos

comments powered by Disqus